sensor_id;sensor_type;location;lat;lon;timestamp;P1;P2;P0
76043;PMS7003;64740;34.694;33.088;2023-07-20T00:00:54;5;4.8;3.8
76043;PMS7003;64740;34.694;33.088;2023-07-20T00:05:38;4.6;4.6;3.5
76043;PMS7003;64740;34.694;33.088;2023-07-20T00:10:32;4.7;4.6;3.6
76043;PMS7003;64740;34.694;33.088;2023-07-20T00:15:26;4.5;4.4;3.4
76043;PMS7003;64740;34.694;33.088;2023-07-20T00:20:12;5.7;5.7;4.7
76043;PMS7003;64740;34.694;33.088;2023-07-20T00:25:18;5.7;5.6;4.5
76043;PMS7003;64740;34.694;33.088;2023-07-20T00:30:12;5;4.9;3.7
76043;PMS7003;64740;34.694;33.088;2023-07-20T00:35:54;4.8;4.7;3.9
76043;PMS7003;64740;34.694;33.088;2023-07-20T00:40:40;4.8;4.8;4.1
76043;PMS7003;64740;34.694;33.088;2023-07-20T00:45:46;5;4.9;3.8
76043;PMS7003;64740;34.694;33.088;2023-07-20T00:50:24;4.9;4.8;3.6
76043;PMS7003;64740;34.694;33.088;2023-07-20T00:55:18;5;4.5;3.7
76043;PMS7003;64740;34.694;33.088;2023-07-20T01:00:54;5.1;5;3.9
76043;PMS7003;64740;34.694;33.088;2023-07-20T01:05:18;5.3;5.1;3.9
76043;PMS7003;64740;34.694;33.088;2023-07-20T01:10:13;4.9;4.7;3.8
76043;PMS7003;64740;34.694;33.088;2023-07-20T01:15:26;4.5;4.4;3.6
76043;PMS7003;64740;34.694;33.088;2023-07-20T01:20:54;5.6;5.4;4.2
76043;PMS7003;64740;34.694;33.088;2023-07-20T01:25:22;4.9;4.9;3.8
76043;PMS7003;64740;34.694;33.088;2023-07-20T01:30:26;5;4.9;3.9
76043;PMS7003;64740;34.694;33.088;2023-07-20T01:35:40;5;4.8;3.8
76043;PMS7003;64740;34.694;33.088;2023-07-20T01:40:19;4.8;4.7;3.5
76043;PMS7003;64740;34.694;33.088;2023-07-20T01:45:24;5;5;4.1
76043;PMS7003;64740;34.694;33.088;2023-07-20T01:50:30;5.6;5.5;4.2
76043;PMS7003;64740;34.694;33.088;2023-07-20T01:55:54;5.1;5.1;4
76043;PMS7003;64740;34.694;33.088;2023-07-20T02:00:12;5.1;4.9;3.9
76043;PMS7003;64740;34.694;33.088;2023-07-20T02:05:18;4;4;3.1
76043;PMS7003;64740;34.694;33.088;2023-07-20T02:10:46;4.4;4.4;3.6
76043;PMS7003;64740;34.694;33.088;2023-07-20T02:15:34;4.5;4.5;3.6
76043;PMS7003;64740;34.694;33.088;2023-07-20T02:20:34;4.9;4.8;3.9
76043;PMS7003;64740;34.694;33.088;2023-07-20T02:25:18;4.6;4.4;3.7
76043;PMS7003;64740;34.694;33.088;2023-07-20T02:30:38;4.6;4.5;3.6
76043;PMS7003;64740;34.694;33.088;2023-07-20T02:35:32;4.3;4.3;3.1
76043;PMS7003;64740;34.694;33.088;2023-07-20T02:40:46;4.5;4.4;3.6
76043;PMS7003;64740;34.694;33.088;2023-07-20T02:45:52;4;4;3.3
76043;PMS7003;64740;34.694;33.088;2023-07-20T02:50:32;4.5;4.5;3.2
76043;PMS7003;64740;34.694;33.088;2023-07-20T02:55:24;4.6;4.4;3.5
76043;PMS7003;64740;34.694;33.088;2023-07-20T03:00:28;4.6;4.4;3.3
76043;PMS7003;64740;34.694;33.088;2023-07-20T03:05:28;3.7;3.6;2.9
76043;PMS7003;64740;34.694;33.088;2023-07-20T03:10:12;4.7;4.6;3.6
76043;PMS7003;64740;34.694;33.088;2023-07-20T03:15:54;4.6;4.6;3.5
76043;PMS7003;64740;34.694;33.088;2023-07-20T03:20:12;4.1;4.1;3.3
76043;PMS7003;64740;34.694;33.088;2023-07-20T03:25:32;4.7;4.6;3.6
76043;PMS7003;64740;34.694;33.088;2023-07-20T03:30:54;5.2;5.1;4
76043;PMS7003;64740;34.694;33.088;2023-07-20T03:35:42;5.2;5.1;4
76043;PMS7003;64740;34.694;33.088;2023-07-20T03:40:18;4.9;4.8;3.8
76043;PMS7003;64740;34.694;33.088;2023-07-20T03:45:44;5.1;5.1;3.9
76043;PMS7003;64740;34.694;33.088;2023-07-20T03:50:54;5.4;5.3;4.3
76043;PMS7003;64740;34.694;33.088;2023-07-20T03:55:54;5.5;5.5;4.2
76043;PMS7003;64740;34.694;33.088;2023-07-20T04:00:54;5.4;5.4;4.4
76043;PMS7003;64740;34.694;33.088;2023-07-20T04:05:38;5.7;5.7;4.6
76043;PMS7003;64740;34.694;33.088;2023-07-20T04:10:18;5.5;5.4;4.2
76043;PMS7003;64740;34.694;33.088;2023-07-20T04:15:18;5.3;5.1;4.1
76043;PMS7003;64740;34.694;33.088;2023-07-20T04:20:46;5.4;5.2;4.2
76043;PMS7003;64740;34.694;33.088;2023-07-20T04:25:54;5;4.9;3.7
76043;PMS7003;64740;34.694;33.088;2023-07-20T04:30:40;5.2;5.1;4.2
76043;PMS7003;64740;34.694;33.088;2023-07-20T04:35:47;5.6;5.4;4.3
76043;PMS7003;64740;34.694;33.088;2023-07-20T04:40:54;6.3;6.1;4.7
76043;PMS7003;64740;34.694;33.088;2023-07-20T04:45:38;6.2;6;4.7
76043;PMS7003;64740;34.694;33.088;2023-07-20T04:50:12;6.8;6.4;5
76043;PMS7003;64740;34.694;33.088;2023-07-20T04:55:40;7.4;7.1;5.5
76043;PMS7003;64740;34.694;33.088;2023-07-20T05:00:54;7.2;7.2;5.4
76043;PMS7003;64740;34.694;33.088;2023-07-20T05:05:38;7.7;7.6;6
76043;PMS7003;64740;34.694;33.088;2023-07-20T05:10:44;7.2;6.9;5.5
76043;PMS7003;64740;34.694;33.088;2023-07-20T05:15:12;7.9;7.7;6
76043;PMS7003;64740;34.694;33.088;2023-07-20T05:20:12;7.7;7.6;5.9
76043;PMS7003;64740;34.694;33.088;2023-07-20T05:25:54;7.4;7.2;5.5
76043;PMS7003;64740;34.694;33.088;2023-07-20T05:30:18;7.8;7.5;5.8
76043;PMS7003;64740;34.694;33.088;2023-07-20T05:35:25;7.4;7.3;5.8
76043;PMS7003;64740;34.694;33.088;2023-07-20T05:40:20;7.9;7.8;6
76043;PMS7003;64740;34.694;33.088;2023-07-20T05:45:54;8.6;8.1;6.2
76043;PMS7003;64740;34.694;33.088;2023-07-20T05:50:12;7.6;7.4;5.8
76043;PMS7003;64740;34.694;33.088;2023-07-20T05:55:12;7.9;7.7;6.1
76043;PMS7003;64740;34.694;33.088;2023-07-20T06:00:40;8.6;8.4;6.8
76043;PMS7003;64740;34.694;33.088;2023-07-20T06:05:12;8.3;8.3;6.7
76043;PMS7003;64740;34.694;33.088;2023-07-20T06:10:12;8.1;7.9;6.2
76043;PMS7003;64740;34.694;33.088;2023-07-20T06:15:31;7.7;7.7;6.1
76043;PMS7003;64740;34.694;33.088;2023-07-20T06:20:54;7.6;7.6;6
76043;PMS7003;64740;34.694;33.088;2023-07-20T06:25:32;8;8;6.2
76043;PMS7003;64740;34.694;33.088;2023-07-20T06:30:58;8.3;8.3;6.4
76043;PMS7003;64740;34.694;33.088;2023-07-20T06:35:54;8.1;7.9;6.1
76043;PMS7003;64740;34.694;33.088;2023-07-20T06:40:40;8.6;8.3;6.7
76043;PMS7003;64740;34.694;33.088;2023-07-20T06:45:12;8.8;8.7;6.7
76043;PMS7003;64740;34.694;33.088;2023-07-20T06:50:30;9;8.8;6.8
76043;PMS7003;64740;34.694;33.088;2023-07-20T06:55:38;8.9;8.8;7.3
76043;PMS7003;64740;34.694;33.088;2023-07-20T07:00:18;8.9;8.8;6.9
76043;PMS7003;64740;34.694;33.088;2023-07-20T07:05:35;9;8.7;6.6
76043;PMS7003;64740;34.694;33.088;2023-07-20T07:10:46;9;8.9;7.2
76043;PMS7003;64740;34.694;33.088;2023-07-20T07:15:38;10.1;9.9;7.8
76043;PMS7003;64740;34.694;33.088;2023-07-20T07:20:38;9.2;9.2;7.2
76043;PMS7003;64740;34.694;33.088;2023-07-20T07:25:12;9.1;8.8;7.2
76043;PMS7003;64740;34.694;33.088;2023-07-20T07:30:12;7.8;7.8;6.2
76043;PMS7003;64740;34.694;33.088;2023-07-20T07:35:24;8.3;8.2;6.5
76043;PMS7003;64740;34.694;33.088;2023-07-20T07:40:54;7.7;7.6;6
76043;PMS7003;64740;34.694;33.088;2023-07-20T07:45:24;6.7;6.5;5
76043;PMS7003;64740;34.694;33.088;2023-07-20T07:50:38;5.4;5.4;4.5
76043;PMS7003;64740;34.694;33.088;2023-07-20T07:55:54;5.6;5.4;4.4
76043;PMS7003;64740;34.694;33.088;2023-07-20T08:00:32;5.7;5.5;4.4
76043;PMS7003;64740;34.694;33.088;2023-07-20T08:05:36;5.3;5.2;4.2
76043;PMS7003;64740;34.694;33.088;2023-07-20T08:10:46;5.2;5.2;3.9
76043;PMS7003;64740;34.694;33.088;2023-07-20T08:15:54;5.2;5.2;4.3
76043;PMS7003;64740;34.694;33.088;2023-07-20T08:20:54;6.2;6.2;5
76043;PMS7003;64740;34.694;33.088;2023-07-20T08:25:52;6.7;6.6;5.3
76043;PMS7003;64740;34.694;33.088;2023-07-20T08:30:54;6.8;6.6;5.4
76043;PMS7003;64740;34.694;33.088;2023-07-20T08:35:28;6.2;6.1;5
76043;PMS7003;64740;34.694;33.088;2023-07-20T08:40:13;6.2;6.1;5.1
76043;PMS7003;64740;34.694;33.088;2023-07-20T08:45:46;15.5;15.1;10.8
76043;PMS7003;64740;34.694;33.088;2023-07-20T08:50:54;8.5;8.2;6.5
76043;PMS7003;64740;34.694;33.088;2023-07-20T08:55:40;6.6;6.5;5.2
76043;PMS7003;64740;34.694;33.088;2023-07-20T09:00:46;6.8;6.7;5.5
76043;PMS7003;64740;34.694;33.088;2023-07-20T09:05:54;7.6;7.4;5.8
76043;PMS7003;64740;34.694;33.088;2023-07-20T09:10:19;7.9;7.9;6.4
76043;PMS7003;64740;34.694;33.088;2023-07-20T09:15:42;8.1;8.1;6.5
76043;PMS7003;64740;34.694;33.088;2023-07-20T09:20:32;9.1;8.9;7.2
76043;PMS7003;64740;34.694;33.088;2023-07-20T09:25:54;9.2;8.8;7.1
76043;PMS7003;64740;34.694;33.088;2023-07-20T09:30:40;9;8.7;7
76043;PMS7003;64740;34.694;33.088;2023-07-20T09:35:46;9;8.8;7
76043;PMS7003;64740;34.694;33.088;2023-07-20T09:40:30;8.4;8.3;6.5
76043;PMS7003;64740;34.694;33.088;2023-07-20T09:45:33;8.5;8.3;6.5
76043;PMS7003;64740;34.694;33.088;2023-07-20T09:50:52;8.9;8.9;7.1
76043;PMS7003;64740;34.694;33.088;2023-07-20T09:55:12;8.8;8.7;6.9
76043;PMS7003;64740;34.694;33.088;2023-07-20T10:00:26;8.7;8.5;6.7
76043;PMS7003;64740;34.694;33.088;2023-07-20T10:05:43;9.3;8.8;6.9
76043;PMS7003;64740;34.694;33.088;2023-07-20T10:10:54;9.1;8.9;6.8
76043;PMS7003;64740;34.694;33.088;2023-07-20T10:15:33;8.9;8.9;6.9
76043;PMS7003;64740;34.694;33.088;2023-07-20T10:20:12;8.9;8.8;6.9
76043;PMS7003;64740;34.694;33.088;2023-07-20T10:25:40;9.3;9.1;7.2
76043;PMS7003;64740;34.694;33.088;2023-07-20T10:30:32;8.6;8.5;6.8
76043;PMS7003;64740;34.694;33.088;2023-07-20T10:35:18;9.6;9.5;7.5
76043;PMS7003;64740;34.694;33.088;2023-07-20T10:40:31;8.9;8.7;6.9
76043;PMS7003;64740;34.694;33.088;2023-07-20T10:45:54;8.8;8.6;6.8
76043;PMS7003;64740;34.694;33.088;2023-07-20T10:50:32;8.5;8.3;6
76043;PMS7003;64740;34.694;33.088;2023-07-20T10:56:05;8.8;8.8;7.2
76043;PMS7003;64740;34.694;33.088;2023-07-20T11:00:55;8.5;8.3;6.7
76043;PMS7003;64740;34.694;33.088;2023-07-20T11:05:34;8.8;8.8;6.9
76043;PMS7003;64740;34.694;33.088;2023-07-20T11:10:24;8.6;8.3;6.8
76043;PMS7003;64740;34.694;33.088;2023-07-20T11:15:12;9.4;9.1;7
76043;PMS7003;64740;34.694;33.088;2023-07-20T11:20:12;9.4;9.1;7.3
76043;PMS7003;64740;34.694;33.088;2023-07-20T11:25:18;9.2;9.1;7.2
76043;PMS7003;64740;34.694;33.088;2023-07-20T11:30:18;9.1;8.9;7
76043;PMS7003;64740;34.694;33.088;2023-07-20T11:35:35;8.9;8.6;7.1
76043;PMS7003;64740;34.694;33.088;2023-07-20T11:40:32;8.9;8.8;7.1
76043;PMS7003;64740;34.694;33.088;2023-07-20T11:45:38;8.8;8.4;6.6
76043;PMS7003;64740;34.694;33.088;2023-07-20T11:50:12;8.6;8.6;6.9
76043;PMS7003;64740;34.694;33.088;2023-07-20T11:55:24;8;8;6.6
76043;PMS7003;64740;34.694;33.088;2023-07-20T12:00:18;8.8;8.8;7
76043;PMS7003;64740;34.694;33.088;2023-07-20T12:05:54;7.6;7.5;5.9
76043;PMS7003;64740;34.694;33.088;2023-07-20T12:10:12;8.1;7.7;6.3
76043;PMS7003;64740;34.694;33.088;2023-07-20T12:15:38;7.3;7.3;6
76043;PMS7003;64740;34.694;33.088;2023-07-20T12:20:58;8.6;8.4;6.8
76043;PMS7003;64740;34.694;33.088;2023-07-20T12:25:46;8;7.9;6.3
76043;PMS7003;64740;34.694;33.088;2023-07-20T12:30:12;6.6;6.5;5.1
76043;PMS7003;64740;34.694;33.088;2023-07-20T12:35:44;8.9;8.6;6.8
76043;PMS7003;64740;34.694;33.088;2023-07-20T12:40:52;7.4;7.4;6.1
76043;PMS7003;64740;34.694;33.088;2023-07-20T12:45:54;8.3;8.1;6.5
76043;PMS7003;64740;34.694;33.088;2023-07-20T12:50:54;8.2;8;6.7
76043;PMS7003;64740;34.694;33.088;2023-07-20T12:55:54;8;8;6.6
76043;PMS7003;64740;34.694;33.088;2023-07-20T13:00:13;8.1;8;6.7
76043;PMS7003;64740;34.694;33.088;2023-07-20T13:05:12;7.4;7.4;6.3
76043;PMS7003;64740;34.694;33.088;2023-07-20T13:10:32;7.2;7;6.1
76043;PMS7003;64740;34.694;33.088;2023-07-20T13:15:54;7;6.9;5.6
76043;PMS7003;64740;34.694;33.088;2023-07-20T13:20:40;7;6.9;5.8
76043;PMS7003;64740;34.694;33.088;2023-07-20T13:25:46;6.7;6.5;5.1
76043;PMS7003;64740;34.694;33.088;2023-07-20T13:30:54;7;6.9;5.5
76043;PMS7003;64740;34.694;33.088;2023-07-20T13:35:24;6.6;6.4;5.1
76043;PMS7003;64740;34.694;33.088;2023-07-20T13:40:14;5.7;5.5;4.5
76043;PMS7003;64740;34.694;33.088;2023-07-20T13:45:26;6.5;6.4;5.1
76043;PMS7003;64740;34.694;33.088;2023-07-20T13:50:54;5.9;5.7;4.7
76043;PMS7003;64740;34.694;33.088;2023-07-20T13:55:34;6.2;6.1;5
76043;PMS7003;64740;34.694;33.088;2023-07-20T14:00:46;7;6.9;5.7
76043;PMS7003;64740;34.694;33.088;2023-07-20T14:05:30;6.8;6.7;5.5
76043;PMS7003;64740;34.694;33.088;2023-07-20T14:10:18;6.9;6.8;5.5
76043;PMS7003;64740;34.694;33.088;2023-07-20T14:15:40;6.5;6.4;5.2
76043;PMS7003;64740;34.694;33.088;2023-07-20T14:20:32;6.6;6.3;5.3
76043;PMS7003;64740;34.694;33.088;2023-07-20T14:25:38;6.2;6.1;4.9
76043;PMS7003;64740;34.694;33.088;2023-07-20T14:30:40;6.9;6.7;5.4
76043;PMS7003;64740;34.694;33.088;2023-07-20T14:35:54;5.9;5.9;4.8
76043;PMS7003;64740;34.694;33.088;2023-07-20T14:40:12;6.9;6.7;5.7
76043;PMS7003;64740;34.694;33.088;2023-07-20T14:45:24;6.7;6.7;5.5
76043;PMS7003;64740;34.694;33.088;2023-07-20T14:50:20;6.5;6.5;5.1
76043;PMS7003;64740;34.694;33.088;2023-07-20T14:55:32;6.7;6.6;5.5
76043;PMS7003;64740;34.694;33.088;2023-07-20T15:00:18;6.7;6.5;5.1
76043;PMS7003;64740;34.694;33.088;2023-07-20T15:05:30;6;6;4.6
76043;PMS7003;64740;34.694;33.088;2023-07-20T15:10:20;5.3;5.3;4.5
76043;PMS7003;64740;34.694;33.088;2023-07-20T15:15:13;5.4;5.4;4.5
76043;PMS7003;64740;34.694;33.088;2023-07-20T15:20:32;5.5;5.5;4.3
76043;PMS7003;64740;34.694;33.088;2023-07-20T15:25:42;5;5;4.2
76043;PMS7003;64740;34.694;33.088;2023-07-20T15:30:27;5.5;5.4;4.3
76043;PMS7003;64740;34.694;33.088;2023-07-20T15:35:24;5.4;5.3;4.2
76043;PMS7003;64740;34.694;33.088;2023-07-20T15:40:22;5.9;5.9;4.7
76043;PMS7003;64740;34.694;33.088;2023-07-20T15:45:24;5.1;5;4.1
76043;PMS7003;64740;34.694;33.088;2023-07-20T15:50:18;5.2;5.1;4.3
76043;PMS7003;64740;34.694;33.088;2023-07-20T15:55:32;5.3;5.3;4.4
76043;PMS7003;64740;34.694;33.088;2023-07-20T16:00:44;5.9;5.7;4.6
76043;PMS7003;64740;34.694;33.088;2023-07-20T16:05:32;5.4;5.3;4.4
76043;PMS7003;64740;34.694;33.088;2023-07-20T16:10:32;5.4;5.3;4.2
76043;PMS7003;64740;34.694;33.088;2023-07-20T16:15:30;5.4;5.3;3.9
76043;PMS7003;64740;34.694;33.088;2023-07-20T16:20:30;6;5.9;4.8
76043;PMS7003;64740;34.694;33.088;2023-07-20T16:25:18;5.3;5.2;4.3
76043;PMS7003;64740;34.694;33.088;2023-07-20T16:30:54;5.8;5.7;4.4
76043;PMS7003;64740;34.694;33.088;2023-07-20T16:35:18;5.9;5.8;4.7
76043;PMS7003;64740;34.694;33.088;2023-07-20T16:40:38;5.7;5.7;4.6
76043;PMS7003;64740;34.694;33.088;2023-07-20T16:45:57;6.7;6.5;5.1
76043;PMS7003;64740;34.694;33.088;2023-07-20T16:50:46;6.4;6.4;5.2
76043;PMS7003;64740;34.694;33.088;2023-07-20T16:55:22;6;5.9;4.9
76043;PMS7003;64740;34.694;33.088;2023-07-20T17:00:46;7.3;7.3;5.7
76043;PMS7003;64740;34.694;33.088;2023-07-20T17:05:54;8.2;8;6.2
76043;PMS7003;64740;34.694;33.088;2023-07-20T17:10:55;8.5;8.2;6.4
76043;PMS7003;64740;34.694;33.088;2023-07-20T17:15:54;8.3;8.2;6.4
76043;PMS7003;64740;34.694;33.088;2023-07-20T17:20:54;7.8;7.7;6.1
76043;PMS7003;64740;34.694;33.088;2023-07-20T17:25:24;8.2;8;6.2
76043;PMS7003;64740;34.694;33.088;2023-07-20T17:30:12;8.2;8.2;6.7
76043;PMS7003;64740;34.694;33.088;2023-07-20T17:35:46;8.5;8.4;6.3
76043;PMS7003;64740;34.694;33.088;2023-07-20T17:40:52;7.9;7.9;6.2
76043;PMS7003;64740;34.694;33.088;2023-07-20T17:45:54;8.2;8;6.3
76043;PMS7003;64740;34.694;33.088;2023-07-20T17:50:46;7.6;7.6;5.7
76043;PMS7003;64740;34.694;33.088;2023-07-20T17:55:54;6.9;6.9;5.7
76043;PMS7003;64740;34.694;33.088;2023-07-20T18:00:12;7.1;7;5.5
76043;PMS7003;64740;34.694;33.088;2023-07-20T18:05:18;6;5.9;4.3
76043;PMS7003;64740;34.694;33.088;2023-07-20T18:10:12;7.1;7.1;5.8
76043;PMS7003;64740;34.694;33.088;2023-07-20T18:15:54;8.3;8.1;6.5
76043;PMS7003;64740;34.694;33.088;2023-07-20T18:20:40;8.6;8.4;6.6
76043;PMS7003;64740;34.694;33.088;2023-07-20T18:25:46;10.8;10.2;7.5
76043;PMS7003;64740;34.694;33.088;2023-07-20T18:30:30;11.7;11.5;8.8
76043;PMS7003;64740;34.694;33.088;2023-07-20T18:35:12;11.7;11.5;8.9
76043;PMS7003;64740;34.694;33.088;2023-07-20T18:40:54;9;9;7
76043;PMS7003;64740;34.694;33.088;2023-07-20T18:45:32;9.5;9.3;7.3
76043;PMS7003;64740;34.694;33.088;2023-07-20T18:50:25;10.1;9.9;7.8
76043;PMS7003;64740;34.694;33.088;2023-07-20T18:55:46;10.1;10;7.6
76043;PMS7003;64740;34.694;33.088;2023-07-20T19:00:57;10;9.9;7.9
76043;PMS7003;64740;34.694;33.088;2023-07-20T19:05:12;10;9.7;7.8
76043;PMS7003;64740;34.694;33.088;2023-07-20T19:10:12;8.2;8.1;6.5
76043;PMS7003;64740;34.694;33.088;2023-07-20T19:15:54;6.8;6.6;5.3
76043;PMS7003;64740;34.694;33.088;2023-07-20T19:20:40;6.6;6.5;5.1
76043;PMS7003;64740;34.694;33.088;2023-07-20T19:25:24;7.1;7.1;5.8
76043;PMS7003;64740;34.694;33.088;2023-07-20T19:30:18;6.6;6.6;5.4
76043;PMS7003;64740;34.694;33.088;2023-07-20T19:35:26;6.9;6.7;5.7
76043;PMS7003;64740;34.694;33.088;2023-07-20T19:40:32;7.5;7.4;5.7
76043;PMS7003;64740;34.694;33.088;2023-07-20T19:45:32;9.7;9.6;7.7
76043;PMS7003;64740;34.694;33.088;2023-07-20T19:50:54;10.4;10.4;8
76043;PMS7003;64740;34.694;33.088;2023-07-20T19:55:38;9.2;8.9;7
76043;PMS7003;64740;34.694;33.088;2023-07-20T20:00:12;9.5;9.3;7.4
76043;PMS7003;64740;34.694;33.088;2023-07-20T20:05:54;10.2;10.1;7.9
76043;PMS7003;64740;34.694;33.088;2023-07-20T20:10:31;9.5;9.4;7.1
76043;PMS7003;64740;34.694;33.088;2023-07-20T20:15:24;9.7;9.5;7.7
76043;PMS7003;64740;34.694;33.088;2023-07-20T20:20:32;10;9.9;7.4
76043;PMS7003;64740;34.694;33.088;2023-07-20T20:25:47;12.4;12;9.2
76043;PMS7003;64740;34.694;33.088;2023-07-20T20:30:26;11.6;11.5;8.5
76043;PMS7003;64740;34.694;33.088;2023-07-20T20:35:32;10.3;10.1;7.7
76043;PMS7003;64740;34.694;33.088;2023-07-20T20:40:30;10.5;10.4;8.1
76043;PMS7003;64740;34.694;33.088;2023-07-20T20:45:18;10;9.8;7.8
76043;PMS7003;64740;34.694;33.088;2023-07-20T20:50:12;12;11.4;8.4
76043;PMS7003;64740;34.694;33.088;2023-07-20T20:55:54;10.8;10.6;8.3
76043;PMS7003;64740;34.694;33.088;2023-07-20T21:00:24;10.5;10;7.5
76043;PMS7003;64740;34.694;33.088;2023-07-20T21:05:38;8.8;8.6;6.8
76043;PMS7003;64740;34.694;33.088;2023-07-20T21:10:56;8;7.8;6.3
76043;PMS7003;64740;34.694;33.088;2023-07-20T21:15:49;9.2;9.1;6.9
76043;PMS7003;64740;34.694;33.088;2023-07-20T21:20:12;8.2;8.1;6.5
76043;PMS7003;64740;34.694;33.088;2023-07-20T21:25:46;7.6;7.4;5.5
76043;PMS7003;64740;34.694;33.088;2023-07-20T21:31:02;7.6;7.6;6.1
76043;PMS7003;64740;34.694;33.088;2023-07-20T21:35:54;7.3;7.1;5.6
76043;PMS7003;64740;34.694;33.088;2023-07-20T21:40:54;6.7;6.6;5.4
76043;PMS7003;64740;34.694;33.088;2023-07-20T21:45:52;7.4;7.3;5.9
76043;PMS7003;64740;34.694;33.088;2023-07-20T21:50:24;6.3;6.3;5
76043;PMS7003;64740;34.694;33.088;2023-07-20T21:55:12;6.1;6;4.7
76043;PMS7003;64740;34.694;33.088;2023-07-20T22:00:14;6;5.9;4.7
76043;PMS7003;64740;34.694;33.088;2023-07-20T22:05:54;5.6;5.5;4.5
76043;PMS7003;64740;34.694;33.088;2023-07-20T22:10:54;5.3;5.1;3.9
76043;PMS7003;64740;34.694;33.088;2023-07-20T22:15:46;6.7;6.5;5.1
76043;PMS7003;64740;34.694;33.088;2023-07-20T22:20:48;6.5;6.4;5.1
76043;PMS7003;64740;34.694;33.088;2023-07-20T22:25:18;5.5;5.4;4.4
76043;PMS7003;64740;34.694;33.088;2023-07-20T22:30:18;5.2;5.1;4.2
76043;PMS7003;64740;34.694;33.088;2023-07-20T22:35:26;6.1;5.9;4.8
76043;PMS7003;64740;34.694;33.088;2023-07-20T22:40:54;5.7;5.6;4.4
76043;PMS7003;64740;34.694;33.088;2023-07-20T22:45:40;5.6;5.5;4.2
76043;PMS7003;64740;34.694;33.088;2023-07-20T22:50:54;5;4.9;3.9
76043;PMS7003;64740;34.694;33.088;2023-07-20T22:55:12;5.3;5.2;4
76043;PMS7003;64740;34.694;33.088;2023-07-20T23:00:13;5.7;5.5;4.4
76043;PMS7003;64740;34.694;33.088;2023-07-20T23:05:40;4.4;4.3;3.4
76043;PMS7003;64740;34.694;33.088;2023-07-20T23:10:12;4.6;4.5;3.6
76043;PMS7003;64740;34.694;33.088;2023-07-20T23:15:12;4.9;4.9;3.9
76043;PMS7003;64740;34.694;33.088;2023-07-20T23:20:30;5.1;5.1;4
76043;PMS7003;64740;34.694;33.088;2023-07-20T23:25:55;5.8;5.7;4.5
76043;PMS7003;64740;34.694;33.088;2023-07-20T23:30:32;4.8;4.8;3.8
76043;PMS7003;64740;34.694;33.088;2023-07-20T23:35:32;5.4;5.3;4.4
76043;PMS7003;64740;34.694;33.088;2023-07-20T23:40:54;4.2;4.2;3.3
76043;PMS7003;64740;34.694;33.088;2023-07-20T23:45:14;4.9;4.8;4
76043;PMS7003;64740;34.694;33.088;2023-07-20T23:50:12;5.8;5.8;4.3
76043;PMS7003;64740;34.694;33.088;2023-07-20T23:55:24;5;4.8;4
